sensor_id;sensor_type;location;lat;lon;timestamp;P1;durP1;ratioP1;P2;durP2;ratioP2
23099;SDS011;53791;50.696;4.396;2023-07-20T00:00:16;1.77;;;1.00;;
23099;SDS011;53791;50.696;4.396;2023-07-20T00:02:43;2.27;;;1.17;;
23099;SDS011;53791;50.696;4.396;2023-07-20T00:05:11;1.22;;;0.72;;
23099;SDS011;53791;50.696;4.396;2023-07-20T00:07:38;2.75;;;1.15;;
23099;SDS011;53791;50.696;4.396;2023-07-20T00:10:06;2.33;;;1.15;;
23099;SDS011;53791;50.696;4.396;2023-07-20T00:12:34;3.55;;;1.40;;
23099;SDS011;53791;50.696;4.396;2023-07-20T00:15:02;1.82;;;1.02;;
23099;SDS011;53791;50.696;4.396;2023-07-20T00:17:29;1.60;;;0.93;;
23099;SDS011;53791;50.696;4.396;2023-07-20T00:19:57;2.50;;;1.12;;
23099;SDS011;53791;50.696;4.396;2023-07-20T00:22:24;2.58;;;1.47;;
23099;SDS011;53791;50.696;4.396;2023-07-20T00:24:52;1.60;;;0.90;;
23099;SDS011;53791;50.696;4.396;2023-07-20T00:27:19;1.82;;;1.27;;
23099;SDS011;53791;50.696;4.396;2023-07-20T00:29:47;4.22;;;1.27;;
23099;SDS011;53791;50.696;4.396;2023-07-20T00:32:14;2.33;;;1.07;;
23099;SDS011;53791;50.696;4.396;2023-07-20T00:34:42;2.67;;;1.32;;
23099;SDS011;53791;50.696;4.396;2023-07-20T00:37:10;2.83;;;1.42;;
23099;SDS011;53791;50.696;4.396;2023-07-20T00:39:38;1.60;;;0.90;;
23099;SDS011;53791;50.696;4.396;2023-07-20T00:42:05;3.40;;;1.57;;
23099;SDS011;53791;50.696;4.396;2023-07-20T00:44:33;1.40;;;0.75;;
23099;SDS011;53791;50.696;4.396;2023-07-20T00:47:01;2.25;;;1.25;;
23099;SDS011;53791;50.696;4.396;2023-07-20T00:49:28;2.72;;;1.47;;
23099;SDS011;53791;50.696;4.396;2023-07-20T00:51:56;2.12;;;1.22;;
23099;SDS011;53791;50.696;4.396;2023-07-20T00:54:23;2.75;;;1.42;;
23099;SDS011;53791;50.696;4.396;2023-07-20T00:56:52;1.67;;;0.90;;
23099;SDS011;53791;50.696;4.396;2023-07-20T00:59:21;2.00;;;1.12;;
23099;SDS011;53791;50.696;4.396;2023-07-20T01:01:48;2.95;;;1.60;;
23099;SDS011;53791;50.696;4.396;2023-07-20T01:04:16;2.47;;;1.40;;
23099;SDS011;53791;50.696;4.396;2023-07-20T01:09:22;1.12;;;0.72;;
23099;SDS011;53791;50.696;4.396;2023-07-20T01:12:07;2.10;;;1.37;;
23099;SDS011;53791;50.696;4.396;2023-07-20T01:14:41;2.08;;;1.20;;
23099;SDS011;53791;50.696;4.396;2023-07-20T01:17:09;2.25;;;1.20;;
23099;SDS011;53791;50.696;4.396;2023-07-20T01:19:37;2.50;;;1.22;;
23099;SDS011;53791;50.696;4.396;2023-07-20T01:24:47;2.37;;;1.25;;
23099;SDS011;53791;50.696;4.396;2023-07-20T01:33:16;2.20;;;1.02;;
23099;SDS011;53791;50.696;4.396;2023-07-20T01:35:46;1.90;;;1.20;;
23099;SDS011;53791;50.696;4.396;2023-07-20T01:38:16;21.60;;;1.30;;
23099;SDS011;53791;50.696;4.396;2023-07-20T01:40:45;4.35;;;1.50;;
23099;SDS011;53791;50.696;4.396;2023-07-20T01:43:12;2.95;;;1.15;;
23099;SDS011;53791;50.696;4.396;2023-07-20T01:45:40;1.70;;;1.17;;
23099;SDS011;53791;50.696;4.396;2023-07-20T01:48:08;1.98;;;1.15;;
23099;SDS011;53791;50.696;4.396;2023-07-20T01:50:35;3.83;;;1.87;;
23099;SDS011;53791;50.696;4.396;2023-07-20T01:53:04;4.00;;;1.10;;
23099;SDS011;53791;50.696;4.396;2023-07-20T01:55:32;1.90;;;1.30;;
23099;SDS011;53791;50.696;4.396;2023-07-20T01:57:59;2.00;;;1.12;;
23099;SDS011;53791;50.696;4.396;2023-07-20T02:00:27;5.67;;;2.05;;
23099;SDS011;53791;50.696;4.396;2023-07-20T02:02:55;1.98;;;1.12;;
23099;SDS011;53791;50.696;4.396;2023-07-20T02:05:22;3.50;;;1.77;;
23099;SDS011;53791;50.696;4.396;2023-07-20T02:07:50;9.03;;;1.22;;
23099;SDS011;53791;50.696;4.396;2023-07-20T02:10:17;1.77;;;1.10;;
23099;SDS011;53791;50.696;4.396;2023-07-20T02:12:45;1.65;;;1.00;;
23099;SDS011;53791;50.696;4.396;2023-07-20T02:15:14;3.37;;;1.70;;
23099;SDS011;53791;50.696;4.396;2023-07-20T02:17:42;4.60;;;2.08;;
23099;SDS011;53791;50.696;4.396;2023-07-20T02:20:10;1.60;;;0.95;;
23099;SDS011;53791;50.696;4.396;2023-07-20T02:22:38;3.80;;;1.92;;
23099;SDS011;53791;50.696;4.396;2023-07-20T02:25:06;4.85;;;2.05;;
23099;SDS011;53791;50.696;4.396;2023-07-20T02:27:34;2.55;;;1.40;;
23099;SDS011;53791;50.696;4.396;2023-07-20T02:30:02;11.68;;;1.60;;
23099;SDS011;53791;50.696;4.396;2023-07-20T02:32:30;2.00;;;1.25;;
23099;SDS011;53791;50.696;4.396;2023-07-20T02:34:58;4.90;;;1.72;;
23099;SDS011;53791;50.696;4.396;2023-07-20T02:37:25;1.67;;;1.12;;
23099;SDS011;53791;50.696;4.396;2023-07-20T02:39:53;2.25;;;1.50;;
23099;SDS011;53791;50.696;4.396;2023-07-20T02:42:21;3.17;;;1.60;;
23099;SDS011;53791;50.696;4.396;2023-07-20T02:44:49;2.80;;;1.75;;
23099;SDS011;53791;50.696;4.396;2023-07-20T02:47:17;5.28;;;1.72;;
23099;SDS011;53791;50.696;4.396;2023-07-20T02:49:45;3.55;;;1.70;;
23099;SDS011;53791;50.696;4.396;2023-07-20T02:52:12;6.70;;;1.70;;
23099;SDS011;53791;50.696;4.396;2023-07-20T02:54:39;2.08;;;1.35;;
23099;SDS011;53791;50.696;4.396;2023-07-20T02:57:07;3.00;;;2.00;;
23099;SDS011;53791;50.696;4.396;2023-07-20T02:59:35;2.72;;;1.40;;
23099;SDS011;53791;50.696;4.396;2023-07-20T03:02:02;9.80;;;1.90;;
23099;SDS011;53791;50.696;4.396;2023-07-20T03:04:30;5.35;;;2.55;;
23099;SDS011;53791;50.696;4.396;2023-07-20T03:06:57;4.75;;;2.10;;
23099;SDS011;53791;50.696;4.396;2023-07-20T03:09:25;3.67;;;1.45;;
23099;SDS011;53791;50.696;4.396;2023-07-20T03:11:53;2.90;;;1.45;;
23099;SDS011;53791;50.696;4.396;2023-07-20T03:14:20;1.57;;;1.12;;
23099;SDS011;53791;50.696;4.396;2023-07-20T03:16:49;2.80;;;1.70;;
23099;SDS011;53791;50.696;4.396;2023-07-20T03:19:17;3.95;;;1.50;;
23099;SDS011;53791;50.696;4.396;2023-07-20T03:21:44;2.58;;;1.57;;
23099;SDS011;53791;50.696;4.396;2023-07-20T03:24:12;2.02;;;1.37;;
23099;SDS011;53791;50.696;4.396;2023-07-20T03:26:39;2.37;;;1.40;;
23099;SDS011;53791;50.696;4.396;2023-07-20T03:29:07;4.85;;;2.00;;
23099;SDS011;53791;50.696;4.396;2023-07-20T03:31:34;3.30;;;1.87;;
23099;SDS011;53791;50.696;4.396;2023-07-20T03:34:02;2.55;;;1.72;;
23099;SDS011;53791;50.696;4.396;2023-07-20T03:36:30;2.05;;;1.20;;
23099;SDS011;53791;50.696;4.396;2023-07-20T03:38:58;2.45;;;1.40;;
23099;SDS011;53791;50.696;4.396;2023-07-20T03:41:25;3.55;;;2.05;;
23099;SDS011;53791;50.696;4.396;2023-07-20T03:43:53;2.25;;;1.55;;
23099;SDS011;53791;50.696;4.396;2023-07-20T03:46:21;5.20;;;1.65;;
23099;SDS011;53791;50.696;4.396;2023-07-20T03:48:48;2.62;;;1.50;;
23099;SDS011;53791;50.696;4.396;2023-07-20T03:51:16;2.22;;;1.42;;
23099;SDS011;53791;50.696;4.396;2023-07-20T03:53:43;6.03;;;1.90;;
23099;SDS011;53791;50.696;4.396;2023-07-20T03:56:11;2.62;;;1.60;;
23099;SDS011;53791;50.696;4.396;2023-07-20T03:58:38;4.12;;;1.98;;
23099;SDS011;53791;50.696;4.396;2023-07-20T04:01:06;2.55;;;1.50;;
23099;SDS011;53791;50.696;4.396;2023-07-20T04:03:35;2.87;;;1.65;;
23099;SDS011;53791;50.696;4.396;2023-07-20T04:06:03;5.40;;;1.85;;
23099;SDS011;53791;50.696;4.396;2023-07-20T04:08:30;20.02;;;1.87;;
23099;SDS011;53791;50.696;4.396;2023-07-20T04:11:00;2.95;;;1.70;;
23099;SDS011;53791;50.696;4.396;2023-07-20T04:13:29;2.50;;;1.87;;
23099;SDS011;53791;50.696;4.396;2023-07-20T04:15:59;3.15;;;1.67;;
23099;SDS011;53791;50.696;4.396;2023-07-20T04:18:26;4.12;;;2.08;;
23099;SDS011;53791;50.696;4.396;2023-07-20T04:20:54;7.28;;;1.95;;
23099;SDS011;53791;50.696;4.396;2023-07-20T04:23:21;2.40;;;1.77;;
23099;SDS011;53791;50.696;4.396;2023-07-20T04:25:49;2.40;;;1.60;;
23099;SDS011;53791;50.696;4.396;2023-07-20T04:28:17;2.90;;;1.47;;
23099;SDS011;53791;50.696;4.396;2023-07-20T04:30:48;2.75;;;1.90;;
23099;SDS011;53791;50.696;4.396;2023-07-20T04:33:17;5.05;;;2.17;;
23099;SDS011;53791;50.696;4.396;2023-07-20T04:35:51;2.70;;;1.67;;
23099;SDS011;53791;50.696;4.396;2023-07-20T04:38:25;2.70;;;1.60;;
23099;SDS011;53791;50.696;4.396;2023-07-20T04:40:58;2.12;;;1.47;;
23099;SDS011;53791;50.696;4.396;2023-07-20T04:43:25;3.12;;;1.67;;
23099;SDS011;53791;50.696;4.396;2023-07-20T04:45:53;2.40;;;1.42;;
23099;SDS011;53791;50.696;4.396;2023-07-20T04:48:21;2.60;;;1.50;;
23099;SDS011;53791;50.696;4.396;2023-07-20T04:50:48;3.47;;;1.95;;
23099;SDS011;53791;50.696;4.396;2023-07-20T04:53:16;2.47;;;1.65;;
23099;SDS011;53791;50.696;4.396;2023-07-20T04:55:49;3.15;;;1.95;;
23099;SDS011;53791;50.696;4.396;2023-07-20T04:58:18;2.47;;;1.70;;
23099;SDS011;53791;50.696;4.396;2023-07-20T05:00:47;5.28;;;1.77;;
23099;SDS011;53791;50.696;4.396;2023-07-20T05:03:15;2.75;;;1.67;;
23099;SDS011;53791;50.696;4.396;2023-07-20T05:05:43;3.08;;;1.72;;
23099;SDS011;53791;50.696;4.396;2023-07-20T05:08:10;3.37;;;2.02;;
23099;SDS011;53791;50.696;4.396;2023-07-20T05:10:38;4.55;;;1.60;;
23099;SDS011;53791;50.696;4.396;2023-07-20T05:13:05;3.12;;;1.90;;
23099;SDS011;53791;50.696;4.396;2023-07-20T05:15:33;6.00;;;2.75;;
23099;SDS011;53791;50.696;4.396;2023-07-20T05:18:01;3.05;;;1.87;;
23099;SDS011;53791;50.696;4.396;2023-07-20T05:20:28;3.02;;;1.90;;
23099;SDS011;53791;50.696;4.396;2023-07-20T05:22:57;3.45;;;1.42;;
23099;SDS011;53791;50.696;4.396;2023-07-20T05:25:25;2.72;;;1.70;;
23099;SDS011;53791;50.696;4.396;2023-07-20T05:27:52;2.27;;;1.77;;
23099;SDS011;53791;50.696;4.396;2023-07-20T05:30:21;5.60;;;2.65;;
23099;SDS011;53791;50.696;4.396;2023-07-20T05:32:50;3.40;;;2.12;;
23099;SDS011;53791;50.696;4.396;2023-07-20T05:35:20;3.62;;;2.10;;
23099;SDS011;53791;50.696;4.396;2023-07-20T05:37:48;2.98;;;1.85;;
23099;SDS011;53791;50.696;4.396;2023-07-20T05:40:16;2.98;;;2.02;;
23099;SDS011;53791;50.696;4.396;2023-07-20T05:42:47;3.33;;;1.75;;
23099;SDS011;53791;50.696;4.396;2023-07-20T05:45:16;2.22;;;1.42;;
23099;SDS011;53791;50.696;4.396;2023-07-20T05:47:44;3.12;;;2.10;;
23099;SDS011;53791;50.696;4.396;2023-07-20T05:50:12;2.70;;;1.90;;
23099;SDS011;53791;50.696;4.396;2023-07-20T05:52:40;5.92;;;3.02;;
23099;SDS011;53791;50.696;4.396;2023-07-20T05:55:07;3.95;;;2.45;;
23099;SDS011;53791;50.696;4.396;2023-07-20T05:57:35;3.75;;;1.90;;
23099;SDS011;53791;50.696;4.396;2023-07-20T06:00:05;2.33;;;1.67;;
23099;SDS011;53791;50.696;4.396;2023-07-20T06:02:33;3.45;;;2.08;;
23099;SDS011;53791;50.696;4.396;2023-07-20T06:05:00;4.67;;;1.92;;
23099;SDS011;53791;50.696;4.396;2023-07-20T06:07:28;2.85;;;1.95;;
23099;SDS011;53791;50.696;4.396;2023-07-20T06:09:56;5.28;;;2.50;;
23099;SDS011;53791;50.696;4.396;2023-07-20T06:12:24;3.60;;;2.45;;
23099;SDS011;53791;50.696;4.396;2023-07-20T06:14:51;2.75;;;2.20;;
23099;SDS011;53791;50.696;4.396;2023-07-20T06:17:19;4.20;;;2.42;;
23099;SDS011;53791;50.696;4.396;2023-07-20T06:19:47;3.05;;;2.10;;
23099;SDS011;53791;50.696;4.396;2023-07-20T06:22:14;4.03;;;2.55;;
23099;SDS011;53791;50.696;4.396;2023-07-20T06:24:42;1.98;;;1.47;;
23099;SDS011;53791;50.696;4.396;2023-07-20T06:27:12;4.78;;;2.30;;
23099;SDS011;53791;50.696;4.396;2023-07-20T06:29:38;9.13;;;2.33;;
23099;SDS011;53791;50.696;4.396;2023-07-20T06:32:06;5.65;;;2.08;;
23099;SDS011;53791;50.696;4.396;2023-07-20T06:34:34;5.28;;;2.62;;
23099;SDS011;53791;50.696;4.396;2023-07-20T06:37:04;4.72;;;2.42;;
23099;SDS011;53791;50.696;4.396;2023-07-20T06:39:31;3.40;;;2.33;;
23099;SDS011;53791;50.696;4.396;2023-07-20T06:41:59;4.90;;;3.05;;
23099;SDS011;53791;50.696;4.396;2023-07-20T06:44:26;3.47;;;2.20;;
23099;SDS011;53791;50.696;4.396;2023-07-20T06:46:54;3.15;;;2.27;;
23099;SDS011;53791;50.696;4.396;2023-07-20T06:49:25;3.77;;;2.60;;
23099;SDS011;53791;50.696;4.396;2023-07-20T06:51:53;9.65;;;3.12;;
23099;SDS011;53791;50.696;4.396;2023-07-20T06:54:21;10.10;;;2.70;;
23099;SDS011;53791;50.696;4.396;2023-07-20T06:56:48;3.30;;;2.27;;
23099;SDS011;53791;50.696;4.396;2023-07-20T06:59:16;8.10;;;3.22;;
23099;SDS011;53791;50.696;4.396;2023-07-20T07:01:44;9.23;;;3.35;;
23099;SDS011;53791;50.696;4.396;2023-07-20T07:04:11;3.83;;;2.60;;
23099;SDS011;53791;50.696;4.396;2023-07-20T07:06:39;4.60;;;3.08;;
23099;SDS011;53791;50.696;4.396;2023-07-20T07:09:07;3.90;;;2.80;;
23099;SDS011;53791;50.696;4.396;2023-07-20T07:11:34;3.77;;;2.67;;
23099;SDS011;53791;50.696;4.396;2023-07-20T07:14:02;4.33;;;3.10;;
23099;SDS011;53791;50.696;4.396;2023-07-20T07:16:29;6.22;;;3.47;;
23099;SDS011;53791;50.696;4.396;2023-07-20T07:18:57;3.30;;;2.47;;
23099;SDS011;53791;50.696;4.396;2023-07-20T07:21:25;4.45;;;2.83;;
23099;SDS011;53791;50.696;4.396;2023-07-20T07:23:52;3.90;;;3.17;;
23099;SDS011;53791;50.696;4.396;2023-07-20T07:26:21;4.00;;;2.50;;
23099;SDS011;53791;50.696;4.396;2023-07-20T07:28:50;3.47;;;2.17;;
23099;SDS011;53791;50.696;4.396;2023-07-20T07:31:17;3.65;;;2.58;;
23099;SDS011;53791;50.696;4.396;2023-07-20T07:33:45;3.33;;;2.52;;
23099;SDS011;53791;50.696;4.396;2023-07-20T07:36:12;4.53;;;2.52;;
23099;SDS011;53791;50.696;4.396;2023-07-20T07:38:40;5.05;;;2.80;;
23099;SDS011;53791;50.696;4.396;2023-07-20T07:41:08;2.95;;;2.37;;
23099;SDS011;53791;50.696;4.396;2023-07-20T07:43:36;3.37;;;2.30;;
23099;SDS011;53791;50.696;4.396;2023-07-20T07:46:04;4.55;;;2.90;;
23099;SDS011;53791;50.696;4.396;2023-07-20T07:48:33;2.85;;;2.25;;
23099;SDS011;53791;50.696;4.396;2023-07-20T07:51:01;3.45;;;2.22;;
23099;SDS011;53791;50.696;4.396;2023-07-20T07:53:29;3.50;;;2.27;;
23099;SDS011;53791;50.696;4.396;2023-07-20T07:55:56;2.75;;;1.90;;
23099;SDS011;53791;50.696;4.396;2023-07-20T07:58:24;2.95;;;1.92;;
23099;SDS011;53791;50.696;4.396;2023-07-20T08:00:51;2.80;;;1.92;;
23099;SDS011;53791;50.696;4.396;2023-07-20T08:03:19;2.77;;;1.85;;
23099;SDS011;53791;50.696;4.396;2023-07-20T08:05:47;2.62;;;1.67;;
23099;SDS011;53791;50.696;4.396;2023-07-20T08:08:14;4.20;;;1.95;;
23099;SDS011;53791;50.696;4.396;2023-07-20T08:10:42;3.33;;;2.05;;
23099;SDS011;53791;50.696;4.396;2023-07-20T08:13:10;2.83;;;1.87;;
23099;SDS011;53791;50.696;4.396;2023-07-20T08:15:38;2.52;;;1.85;;
23099;SDS011;53791;50.696;4.396;2023-07-20T08:18:05;3.72;;;1.92;;
23099;SDS011;53791;50.696;4.396;2023-07-20T08:20:33;4.83;;;2.12;;
23099;SDS011;53791;50.696;4.396;2023-07-20T08:23:01;2.62;;;2.02;;
23099;SDS011;53791;50.696;4.396;2023-07-20T08:25:29;3.05;;;2.15;;
23099;SDS011;53791;50.696;4.396;2023-07-20T08:27:56;4.92;;;2.25;;
23099;SDS011;53791;50.696;4.396;2023-07-20T08:30:25;2.67;;;2.22;;
23099;SDS011;53791;50.696;4.396;2023-07-20T08:32:53;1.80;;;1.37;;
23099;SDS011;53791;50.696;4.396;2023-07-20T08:35:20;3.33;;;1.80;;
23099;SDS011;53791;50.696;4.396;2023-07-20T08:37:48;2.10;;;1.40;;
23099;SDS011;53791;50.696;4.396;2023-07-20T08:40:15;1.80;;;1.32;;
23099;SDS011;53791;50.696;4.396;2023-07-20T08:42:43;1.80;;;1.27;;
23099;SDS011;53791;50.696;4.396;2023-07-20T08:45:28;4.10;;;2.08;;
23099;SDS011;53791;50.696;4.396;2023-07-20T08:48:00;2.10;;;1.30;;
23099;SDS011;53791;50.696;4.396;2023-07-20T08:50:30;2.00;;;1.40;;
23099;SDS011;53791;50.696;4.396;2023-07-20T08:52:58;2.10;;;1.50;;
23099;SDS011;53791;50.696;4.396;2023-07-20T08:55:26;2.92;;;1.95;;
23099;SDS011;53791;50.696;4.396;2023-07-20T08:57:55;2.35;;;1.67;;
23099;SDS011;53791;50.696;4.396;2023-07-20T09:00:24;2.52;;;1.95;;
23099;SDS011;53791;50.696;4.396;2023-07-20T09:02:53;4.17;;;1.90;;
23099;SDS011;53791;50.696;4.396;2023-07-20T09:05:22;2.17;;;1.50;;
23099;SDS011;53791;50.696;4.396;2023-07-20T09:07:53;6.55;;;2.10;;
23099;SDS011;53791;50.696;4.396;2023-07-20T09:10:21;2.72;;;1.62;;
23099;SDS011;53791;50.696;4.396;2023-07-20T09:12:50;2.30;;;1.90;;
23099;SDS011;53791;50.696;4.396;2023-07-20T09:15:18;2.10;;;1.47;;
23099;SDS011;53791;50.696;4.396;2023-07-20T09:17:47;2.77;;;1.80;;
23099;SDS011;53791;50.696;4.396;2023-07-20T09:20:20;3.20;;;1.92;;
23099;SDS011;53791;50.696;4.396;2023-07-20T09:22:45;2.25;;;1.52;;
23099;SDS011;53791;50.696;4.396;2023-07-20T09:25:13;2.37;;;1.60;;
23099;SDS011;53791;50.696;4.396;2023-07-20T09:27:46;3.00;;;2.10;;
23099;SDS011;53791;50.696;4.396;2023-07-20T09:30:15;3.42;;;2.05;;
23099;SDS011;53791;50.696;4.396;2023-07-20T09:32:44;2.50;;;1.72;;
23099;SDS011;53791;50.696;4.396;2023-07-20T09:35:18;2.55;;;1.85;;
23099;SDS011;53791;50.696;4.396;2023-07-20T09:38:00;3.83;;;2.15;;
23099;SDS011;53791;50.696;4.396;2023-07-20T09:40:28;2.85;;;1.98;;
23099;SDS011;53791;50.696;4.396;2023-07-20T09:42:56;3.37;;;2.15;;
23099;SDS011;53791;50.696;4.396;2023-07-20T09:45:30;2.58;;;1.67;;
23099;SDS011;53791;50.696;4.396;2023-07-20T09:48:05;3.45;;;1.67;;
23099;SDS011;53791;50.696;4.396;2023-07-20T09:50:33;2.45;;;1.80;;
23099;SDS011;53791;50.696;4.396;2023-07-20T09:53:02;1.92;;;1.40;;
23099;SDS011;53791;50.696;4.396;2023-07-20T09:55:30;2.83;;;1.92;;
23099;SDS011;53791;50.696;4.396;2023-07-20T09:57:57;2.52;;;1.80;;
23099;SDS011;53791;50.696;4.396;2023-07-20T10:00:25;2.12;;;1.72;;
23099;SDS011;53791;50.696;4.396;2023-07-20T10:02:53;2.47;;;1.70;;
23099;SDS011;53791;50.696;4.396;2023-07-20T10:05:22;2.20;;;1.50;;
23099;SDS011;53791;50.696;4.396;2023-07-20T10:07:51;2.05;;;1.40;;
23099;SDS011;53791;50.696;4.396;2023-07-20T10:10:20;2.40;;;1.47;;
23099;SDS011;53791;50.696;4.396;2023-07-20T10:12:48;2.02;;;1.42;;
23099;SDS011;53791;50.696;4.396;2023-07-20T10:15:25;3.30;;;2.08;;
23099;SDS011;53791;50.696;4.396;2023-07-20T10:18:22;2.40;;;1.65;;
23099;SDS011;53791;50.696;4.396;2023-07-20T10:20:49;2.47;;;1.70;;
23099;SDS011;53791;50.696;4.396;2023-07-20T10:23:20;4.78;;;2.33;;
23099;SDS011;53791;50.696;4.396;2023-07-20T10:25:49;2.47;;;1.85;;
23099;SDS011;53791;50.696;4.396;2023-07-20T10:28:17;2.75;;;2.02;;
23099;SDS011;53791;50.696;4.396;2023-07-20T10:30:45;3.12;;;1.67;;
23099;SDS011;53791;50.696;4.396;2023-07-20T10:33:13;2.75;;;1.60;;
23099;SDS011;53791;50.696;4.396;2023-07-20T10:35:56;2.25;;;1.57;;
23099;SDS011;53791;50.696;4.396;2023-07-20T10:41:17;6.20;;;1.60;;
23099;SDS011;53791;50.696;4.396;2023-07-20T10:43:55;2.52;;;1.50;;
23099;SDS011;53791;50.696;4.396;2023-07-20T10:46:43;2.52;;;1.60;;
23099;SDS011;53791;50.696;4.396;2023-07-20T10:49:13;2.90;;;1.60;;
23099;SDS011;53791;50.696;4.396;2023-07-20T10:51:42;2.92;;;1.80;;
23099;SDS011;53791;50.696;4.396;2023-07-20T10:56:48;3.08;;;1.62;;
23099;SDS011;53791;50.696;4.396;2023-07-20T10:59:20;1.80;;;1.30;;
23099;SDS011;53791;50.696;4.396;2023-07-20T11:01:55;2.22;;;1.50;;
23099;SDS011;53791;50.696;4.396;2023-07-20T11:04:39;2.83;;;1.98;;
23099;SDS011;53791;50.696;4.396;2023-07-20T11:07:08;3.00;;;1.80;;
23099;SDS011;53791;50.696;4.396;2023-07-20T11:09:36;2.10;;;1.50;;
23099;SDS011;53791;50.696;4.396;2023-07-20T11:12:11;3.02;;;1.50;;
23099;SDS011;53791;50.696;4.396;2023-07-20T11:14:43;2.10;;;1.30;;
23099;SDS011;53791;50.696;4.396;2023-07-20T11:17:13;2.70;;;1.70;;
23099;SDS011;53791;50.696;4.396;2023-07-20T11:19:41;2.12;;;1.22;;
23099;SDS011;53791;50.696;4.396;2023-07-20T11:22:09;3.77;;;1.75;;
23099;SDS011;53791;50.696;4.396;2023-07-20T11:24:42;5.03;;;1.85;;
23099;SDS011;53791;50.696;4.396;2023-07-20T11:27:06;2.70;;;1.35;;
23099;SDS011;53791;50.696;4.396;2023-07-20T11:29:34;2.65;;;1.65;;
23099;SDS011;53791;50.696;4.396;2023-07-20T11:32:02;1.77;;;1.10;;
23099;SDS011;53791;50.696;4.396;2023-07-20T11:34:30;4.78;;;1.37;;
23099;SDS011;53791;50.696;4.396;2023-07-20T11:36:59;1.95;;;0.90;;
23099;SDS011;53791;50.696;4.396;2023-07-20T11:39:29;1.80;;;1.20;;
23099;SDS011;53791;50.696;4.396;2023-07-20T11:41:57;1.80;;;1.20;;
23099;SDS011;53791;50.696;4.396;2023-07-20T11:44:30;2.22;;;1.30;;
23099;SDS011;53791;50.696;4.396;2023-07-20T11:47:01;1.67;;;1.00;;
23099;SDS011;53791;50.696;4.396;2023-07-20T11:49:36;2.22;;;0.93;;
23099;SDS011;53791;50.696;4.396;2023-07-20T11:52:05;3.92;;;1.62;;
23099;SDS011;53791;50.696;4.396;2023-07-20T11:54:35;2.08;;;1.10;;
23099;SDS011;53791;50.696;4.396;2023-07-20T11:57:04;2.47;;;1.32;;
23099;SDS011;53791;50.696;4.396;2023-07-20T11:59:32;2.02;;;1.27;;
23099;SDS011;53791;50.696;4.396;2023-07-20T12:02:02;1.90;;;1.20;;
23099;SDS011;53791;50.696;4.396;2023-07-20T12:04:32;1.70;;;1.10;;
23099;SDS011;53791;50.696;4.396;2023-07-20T12:09:39;1.90;;;1.15;;
23099;SDS011;53791;50.696;4.396;2023-07-20T12:12:09;1.80;;;1.10;;
23099;SDS011;53791;50.696;4.396;2023-07-20T12:14:38;2.87;;;1.22;;
23099;SDS011;53791;50.696;4.396;2023-07-20T12:17:07;1.50;;;0.82;;
23099;SDS011;53791;50.696;4.396;2023-07-20T12:19:37;2.08;;;1.12;;
23099;SDS011;53791;50.696;4.396;2023-07-20T12:22:05;1.70;;;0.80;;
23099;SDS011;53791;50.696;4.396;2023-07-20T12:24:34;2.00;;;1.12;;
23099;SDS011;53791;50.696;4.396;2023-07-20T12:27:02;1.67;;;0.98;;
23099;SDS011;53791;50.696;4.396;2023-07-20T12:29:30;1.80;;;1.15;;
23099;SDS011;53791;50.696;4.396;2023-07-20T12:32:00;1.98;;;1.00;;
23099;SDS011;53791;50.696;4.396;2023-07-20T12:34:27;2.25;;;1.27;;
23099;SDS011;53791;50.696;4.396;2023-07-20T12:36:55;1.70;;;1.00;;
23099;SDS011;53791;50.696;4.396;2023-07-20T12:39:23;1.40;;;0.80;;
23099;SDS011;53791;50.696;4.396;2023-07-20T12:41:50;2.55;;;1.35;;
23099;SDS011;53791;50.696;4.396;2023-07-20T12:44:17;1.85;;;1.00;;
23099;SDS011;53791;50.696;4.396;2023-07-20T12:46:45;2.15;;;1.15;;
23099;SDS011;53791;50.696;4.396;2023-07-20T12:49:13;2.15;;;1.12;;
23099;SDS011;53791;50.696;4.396;2023-07-20T12:51:40;1.90;;;1.10;;
23099;SDS011;53791;50.696;4.396;2023-07-20T12:54:08;1.60;;;0.95;;
23099;SDS011;53791;50.696;4.396;2023-07-20T12:56:35;2.20;;;1.40;;
23099;SDS011;53791;50.696;4.396;2023-07-20T12:59:02;1.80;;;1.20;;
23099;SDS011;53791;50.696;4.396;2023-07-20T13:01:31;2.20;;;1.37;;
23099;SDS011;53791;50.696;4.396;2023-07-20T13:03:59;1.70;;;1.05;;
23099;SDS011;53791;50.696;4.396;2023-07-20T13:06:26;1.72;;;0.95;;
23099;SDS011;53791;50.696;4.396;2023-07-20T13:08:54;6.80;;;0.98;;
23099;SDS011;53791;50.696;4.396;2023-07-20T13:11:22;1.70;;;0.90;;
23099;SDS011;53791;50.696;4.396;2023-07-20T13:13:50;1.72;;;1.00;;
23099;SDS011;53791;50.696;4.396;2023-07-20T13:16:17;1.60;;;0.93;;
23099;SDS011;53791;50.696;4.396;2023-07-20T13:18:45;2.12;;;1.35;;
23099;SDS011;53791;50.696;4.396;2023-07-20T13:21:12;1.60;;;0.90;;
23099;SDS011;53791;50.696;4.396;2023-07-20T13:23:40;1.72;;;1.10;;
23099;SDS011;53791;50.696;4.396;2023-07-20T13:26:08;2.85;;;0.93;;
23099;SDS011;53791;50.696;4.396;2023-07-20T13:28:35;1.45;;;0.80;;
23099;SDS011;53791;50.696;4.396;2023-07-20T13:31:03;1.70;;;0.93;;
23099;SDS011;53791;50.696;4.396;2023-07-20T13:33:30;1.75;;;1.02;;
23099;SDS011;53791;50.696;4.396;2023-07-20T13:35:58;2.08;;;1.20;;
23099;SDS011;53791;50.696;4.396;2023-07-20T13:38:26;2.12;;;1.12;;
23099;SDS011;53791;50.696;4.396;2023-07-20T13:40:53;1.60;;;0.90;;
23099;SDS011;53791;50.696;4.396;2023-07-20T13:43:21;4.12;;;1.30;;
23099;SDS011;53791;50.696;4.396;2023-07-20T13:46:03;1.60;;;1.00;;
23099;SDS011;53791;50.696;4.396;2023-07-20T13:48:30;1.55;;;0.90;;
23099;SDS011;53791;50.696;4.396;2023-07-20T13:50:58;2.22;;;1.17;;
23099;SDS011;53791;50.696;4.396;2023-07-20T13:53:26;2.35;;;1.30;;
23099;SDS011;53791;50.696;4.396;2023-07-20T13:55:53;1.70;;;1.00;;
23099;SDS011;53791;50.696;4.396;2023-07-20T13:58:22;4.42;;;1.57;;
23099;SDS011;53791;50.696;4.396;2023-07-20T14:00:50;3.65;;;1.57;;
23099;SDS011;53791;50.696;4.396;2023-07-20T14:05:47;1.90;;;1.12;;
23099;SDS011;53791;50.696;4.396;2023-07-20T14:08:14;1.95;;;1.02;;
23099;SDS011;53791;50.696;4.396;2023-07-20T14:10:42;2.25;;;1.15;;
23099;SDS011;53791;50.696;4.396;2023-07-20T14:13:09;1.80;;;1.05;;
23099;SDS011;53791;50.696;4.396;2023-07-20T14:15:38;1.87;;;1.20;;
23099;SDS011;53791;50.696;4.396;2023-07-20T14:18:05;1.80;;;1.05;;
23099;SDS011;53791;50.696;4.396;2023-07-20T14:20:33;2.17;;;1.27;;
23099;SDS011;53791;50.696;4.396;2023-07-20T14:23:01;3.80;;;1.52;;
23099;SDS011;53791;50.696;4.396;2023-07-20T14:25:28;1.90;;;1.00;;
23099;SDS011;53791;50.696;4.396;2023-07-20T14:27:56;3.62;;;1.12;;
23099;SDS011;53791;50.696;4.396;2023-07-20T14:30:23;1.60;;;0.90;;
23099;SDS011;53791;50.696;4.396;2023-07-20T14:32:52;2.05;;;0.95;;
23099;SDS011;53791;50.696;4.396;2023-07-20T14:35:19;2.55;;;1.30;;
23099;SDS011;53791;50.696;4.396;2023-07-20T14:37:48;2.65;;;1.50;;
23099;SDS011;53791;50.696;4.396;2023-07-20T14:40:16;2.25;;;1.25;;
23099;SDS011;53791;50.696;4.396;2023-07-20T14:42:43;1.70;;;1.02;;
23099;SDS011;53791;50.696;4.396;2023-07-20T14:45:11;1.70;;;1.05;;
23099;SDS011;53791;50.696;4.396;2023-07-20T14:47:38;1.72;;;1.15;;
23099;SDS011;53791;50.696;4.396;2023-07-20T14:50:06;1.90;;;1.10;;
23099;SDS011;53791;50.696;4.396;2023-07-20T14:52:34;2.60;;;1.00;;
23099;SDS011;53791;50.696;4.396;2023-07-20T14:55:01;1.60;;;0.80;;
23099;SDS011;53791;50.696;4.396;2023-07-20T14:57:29;1.92;;;1.22;;
23099;SDS011;53791;50.696;4.396;2023-07-20T15:00:00;1.92;;;1.20;;
23099;SDS011;53791;50.696;4.396;2023-07-20T15:02:44;2.22;;;1.77;;
23099;SDS011;53791;50.696;4.396;2023-07-20T15:05:25;1.92;;;1.12;;
23099;SDS011;53791;50.696;4.396;2023-07-20T15:07:52;1.98;;;1.32;;
23099;SDS011;53791;50.696;4.396;2023-07-20T15:10:20;3.58;;;1.62;;
23099;SDS011;53791;50.696;4.396;2023-07-20T15:12:48;3.15;;;1.20;;
23099;SDS011;53791;50.696;4.396;2023-07-20T15:15:15;5.28;;;1.35;;
23099;SDS011;53791;50.696;4.396;2023-07-20T15:17:43;2.37;;;1.30;;